sensor_id;sensor_type;location;lat;lon;timestamp;P1;durP1;ratioP1;P2;durP2;ratioP2
73557;SDS011;61829;53.286;10.434;2023-07-31T00:00:31;4.32;;;1.83;;
73557;SDS011;61829;53.286;10.434;2023-07-31T00:03:17;4.20;;;1.77;;
73557;SDS011;61829;53.286;10.434;2023-07-31T00:05:43;6.43;;;1.90;;
73557;SDS011;61829;53.286;10.434;2023-07-31T00:08:09;5.93;;;1.58;;
73557;SDS011;61829;53.286;10.434;2023-07-31T00:10:35;5.90;;;2.10;;
73557;SDS011;61829;53.286;10.434;2023-07-31T00:13:01;6.47;;;2.10;;
73557;SDS011;61829;53.286;10.434;2023-07-31T00:15:27;4.90;;;1.80;;
73557;SDS011;61829;53.286;10.434;2023-07-31T00:17:53;5.05;;;1.75;;
73557;SDS011;61829;53.286;10.434;2023-07-31T00:20:20;4.50;;;1.70;;
73557;SDS011;61829;53.286;10.434;2023-07-31T00:22:46;2.92;;;1.95;;
73557;SDS011;61829;53.286;10.434;2023-07-31T00:25:12;4.90;;;1.80;;
73557;SDS011;61829;53.286;10.434;2023-07-31T00:27:38;4.70;;;1.70;;
73557;SDS011;61829;53.286;10.434;2023-07-31T00:30:04;4.97;;;1.98;;
73557;SDS011;61829;53.286;10.434;2023-07-31T00:32:30;4.78;;;1.65;;
73557;SDS011;61829;53.286;10.434;2023-07-31T00:34:57;6.07;;;1.58;;
73557;SDS011;61829;53.286;10.434;2023-07-31T00:37:22;3.42;;;1.52;;
73557;SDS011;61829;53.286;10.434;2023-07-31T00:39:49;4.18;;;1.70;;
73557;SDS011;61829;53.286;10.434;2023-07-31T00:42:14;5.10;;;1.90;;
73557;SDS011;61829;53.286;10.434;2023-07-31T00:44:43;2.97;;;1.67;;
73557;SDS011;61829;53.286;10.434;2023-07-31T00:47:09;5.85;;;1.50;;
73557;SDS011;61829;53.286;10.434;2023-07-31T00:49:36;3.53;;;1.60;;
73557;SDS011;61829;53.286;10.434;2023-07-31T00:52:02;6.10;;;1.60;;
73557;SDS011;61829;53.286;10.434;2023-07-31T00:54:28;5.60;;;1.70;;
73557;SDS011;61829;53.286;10.434;2023-07-31T00:56:54;3.80;;;1.65;;
73557;SDS011;61829;53.286;10.434;2023-07-31T00:59:20;4.50;;;1.63;;
73557;SDS011;61829;53.286;10.434;2023-07-31T01:01:46;5.05;;;2.10;;
73557;SDS011;61829;53.286;10.434;2023-07-31T01:04:13;4.20;;;1.90;;
73557;SDS011;61829;53.286;10.434;2023-07-31T01:11:48;4.50;;;1.52;;
73557;SDS011;61829;53.286;10.434;2023-07-31T01:14:23;4.30;;;1.90;;
73557;SDS011;61829;53.286;10.434;2023-07-31T01:16:49;4.90;;;1.88;;
73557;SDS011;61829;53.286;10.434;2023-07-31T01:19:15;8.85;;;2.10;;
73557;SDS011;61829;53.286;10.434;2023-07-31T01:21:56;3.65;;;1.90;;
73557;SDS011;61829;53.286;10.434;2023-07-31T01:27:26;6.43;;;2.22;;
73557;SDS011;61829;53.286;10.434;2023-07-31T01:32:30;7.22;;;2.00;;
73557;SDS011;61829;53.286;10.434;2023-07-31T01:34:58;7.18;;;2.00;;
73557;SDS011;61829;53.286;10.434;2023-07-31T01:37:28;6.45;;;2.05;;
73557;SDS011;61829;53.286;10.434;2023-07-31T01:39:55;6.93;;;2.10;;
73557;SDS011;61829;53.286;10.434;2023-07-31T01:42:21;5.88;;;2.13;;
73557;SDS011;61829;53.286;10.434;2023-07-31T01:44:47;5.60;;;2.08;;
73557;SDS011;61829;53.286;10.434;2023-07-31T01:47:13;7.18;;;2.17;;
73557;SDS011;61829;53.286;10.434;2023-07-31T01:49:39;5.07;;;1.90;;
73557;SDS011;61829;53.286;10.434;2023-07-31T01:52:06;6.00;;;2.30;;
73557;SDS011;61829;53.286;10.434;2023-07-31T01:54:33;8.85;;;2.88;;
73557;SDS011;61829;53.286;10.434;2023-07-31T01:56:59;6.00;;;2.00;;
73557;SDS011;61829;53.286;10.434;2023-07-31T01:59:25;5.55;;;2.13;;
73557;SDS011;61829;53.286;10.434;2023-07-31T02:01:51;5.43;;;2.00;;
73557;SDS011;61829;53.286;10.434;2023-07-31T02:04:17;6.57;;;2.10;;
73557;SDS011;61829;53.286;10.434;2023-07-31T02:06:43;9.88;;;2.30;;
73557;SDS011;61829;53.286;10.434;2023-07-31T02:09:10;7.53;;;2.30;;
73557;SDS011;61829;53.286;10.434;2023-07-31T02:11:36;6.25;;;2.63;;
73557;SDS011;61829;53.286;10.434;2023-07-31T02:14:03;8.02;;;1.98;;
73557;SDS011;61829;53.286;10.434;2023-07-31T02:18:55;5.40;;;2.13;;
73557;SDS011;61829;53.286;10.434;2023-07-31T02:21:20;9.18;;;2.33;;
73557;SDS011;61829;53.286;10.434;2023-07-31T02:23:47;5.00;;;2.00;;
73557;SDS011;61829;53.286;10.434;2023-07-31T02:26:13;7.80;;;2.40;;
73557;SDS011;61829;53.286;10.434;2023-07-31T02:28:39;5.50;;;2.28;;
73557;SDS011;61829;53.286;10.434;2023-07-31T02:31:08;5.95;;;1.90;;
73557;SDS011;61829;53.286;10.434;2023-07-31T02:33:34;8.77;;;2.90;;
73557;SDS011;61829;53.286;10.434;2023-07-31T02:36:00;5.85;;;2.17;;
73557;SDS011;61829;53.286;10.434;2023-07-31T02:38:27;6.10;;;2.72;;
73557;SDS011;61829;53.286;10.434;2023-07-31T02:40:53;6.40;;;2.70;;
73557;SDS011;61829;53.286;10.434;2023-07-31T02:43:19;7.30;;;3.03;;
73557;SDS011;61829;53.286;10.434;2023-07-31T02:45:45;7.43;;;2.65;;
73557;SDS011;61829;53.286;10.434;2023-07-31T02:48:11;5.13;;;2.88;;
73557;SDS011;61829;53.286;10.434;2023-07-31T02:50:37;6.35;;;2.78;;
73557;SDS011;61829;53.286;10.434;2023-07-31T02:53:03;5.03;;;3.20;;
73557;SDS011;61829;53.286;10.434;2023-07-31T02:55:29;6.50;;;3.10;;
73557;SDS011;61829;53.286;10.434;2023-07-31T02:57:55;6.85;;;3.22;;
73557;SDS011;61829;53.286;10.434;2023-07-31T03:00:21;7.45;;;3.40;;
73557;SDS011;61829;53.286;10.434;2023-07-31T03:02:47;8.13;;;3.10;;
73557;SDS011;61829;53.286;10.434;2023-07-31T03:05:13;9.13;;;3.55;;
73557;SDS011;61829;53.286;10.434;2023-07-31T03:07:40;9.40;;;3.92;;
73557;SDS011;61829;53.286;10.434;2023-07-31T03:10:06;6.68;;;4.13;;
73557;SDS011;61829;53.286;10.434;2023-07-31T03:12:32;6.82;;;4.00;;
73557;SDS011;61829;53.286;10.434;2023-07-31T03:14:58;8.70;;;3.88;;
73557;SDS011;61829;53.286;10.434;2023-07-31T03:17:24;8.82;;;4.25;;
73557;SDS011;61829;53.286;10.434;2023-07-31T03:22:38;8.95;;;4.20;;
73557;SDS011;61829;53.286;10.434;2023-07-31T03:25:05;7.07;;;4.75;;
73557;SDS011;61829;53.286;10.434;2023-07-31T03:27:31;7.32;;;4.20;;
73557;SDS011;61829;53.286;10.434;2023-07-31T03:29:57;7.88;;;4.40;;
73557;SDS011;61829;53.286;10.434;2023-07-31T03:32:25;8.10;;;4.88;;
73557;SDS011;61829;53.286;10.434;2023-07-31T03:34:50;9.52;;;5.32;;
73557;SDS011;61829;53.286;10.434;2023-07-31T03:37:17;6.68;;;4.60;;
73557;SDS011;61829;53.286;10.434;2023-07-31T03:39:42;6.15;;;4.20;;
73557;SDS011;61829;53.286;10.434;2023-07-31T03:42:09;8.20;;;4.35;;
73557;SDS011;61829;53.286;10.434;2023-07-31T03:44:35;6.47;;;4.18;;
73557;SDS011;61829;53.286;10.434;2023-07-31T03:47:01;5.82;;;3.80;;
73557;SDS011;61829;53.286;10.434;2023-07-31T03:49:27;6.45;;;3.95;;
73557;SDS011;61829;53.286;10.434;2023-07-31T03:52:02;6.13;;;4.30;;
73557;SDS011;61829;53.286;10.434;2023-07-31T03:54:29;9.07;;;4.57;;
73557;SDS011;61829;53.286;10.434;2023-07-31T03:56:55;6.32;;;4.10;;
73557;SDS011;61829;53.286;10.434;2023-07-31T03:59:21;8.20;;;3.80;;
73557;SDS011;61829;53.286;10.434;2023-07-31T04:01:47;6.82;;;3.92;;
73557;SDS011;61829;53.286;10.434;2023-07-31T04:04:13;5.93;;;4.10;;
73557;SDS011;61829;53.286;10.434;2023-07-31T04:06:39;5.07;;;3.83;;
73557;SDS011;61829;53.286;10.434;2023-07-31T04:09:06;7.82;;;3.90;;
73557;SDS011;61829;53.286;10.434;2023-07-31T04:11:32;5.18;;;3.92;;
73557;SDS011;61829;53.286;10.434;2023-07-31T04:13:58;7.05;;;4.20;;
73557;SDS011;61829;53.286;10.434;2023-07-31T04:16:24;5.47;;;3.75;;
73557;SDS011;61829;53.286;10.434;2023-07-31T04:18:50;6.22;;;3.60;;
73557;SDS011;61829;53.286;10.434;2023-07-31T04:21:16;5.10;;;3.65;;
73557;SDS011;61829;53.286;10.434;2023-07-31T04:23:43;5.95;;;3.67;;
73557;SDS011;61829;53.286;10.434;2023-07-31T04:26:09;5.75;;;4.30;;
73557;SDS011;61829;53.286;10.434;2023-07-31T04:28:35;5.20;;;3.95;;
73557;SDS011;61829;53.286;10.434;2023-07-31T04:31:01;5.95;;;4.00;;
73557;SDS011;61829;53.286;10.434;2023-07-31T04:33:27;6.35;;;3.88;;
73557;SDS011;61829;53.286;10.434;2023-07-31T04:35:53;6.03;;;3.85;;
73557;SDS011;61829;53.286;10.434;2023-07-31T04:38:20;6.78;;;4.68;;
73557;SDS011;61829;53.286;10.434;2023-07-31T04:40:46;7.00;;;4.40;;
73557;SDS011;61829;53.286;10.434;2023-07-31T04:43:12;6.25;;;4.35;;
73557;SDS011;61829;53.286;10.434;2023-07-31T04:45:38;5.93;;;4.28;;
73557;SDS011;61829;53.286;10.434;2023-07-31T04:48:04;5.90;;;4.38;;
73557;SDS011;61829;53.286;10.434;2023-07-31T04:50:31;6.22;;;4.72;;
73557;SDS011;61829;53.286;10.434;2023-07-31T04:52:57;7.15;;;4.25;;
73557;SDS011;61829;53.286;10.434;2023-07-31T04:55:24;5.95;;;4.22;;
73557;SDS011;61829;53.286;10.434;2023-07-31T04:57:50;6.32;;;4.00;;
73557;SDS011;61829;53.286;10.434;2023-07-31T05:00:16;7.57;;;4.53;;
73557;SDS011;61829;53.286;10.434;2023-07-31T05:02:42;6.55;;;5.10;;
73557;SDS011;61829;53.286;10.434;2023-07-31T05:05:08;6.88;;;4.53;;
73557;SDS011;61829;53.286;10.434;2023-07-31T05:07:34;6.80;;;4.00;;
73557;SDS011;61829;53.286;10.434;2023-07-31T05:10:00;8.13;;;4.15;;
73557;SDS011;61829;53.286;10.434;2023-07-31T05:12:26;5.80;;;4.47;;
73557;SDS011;61829;53.286;10.434;2023-07-31T05:14:53;7.15;;;4.53;;
73557;SDS011;61829;53.286;10.434;2023-07-31T05:17:18;6.95;;;5.00;;
73557;SDS011;61829;53.286;10.434;2023-07-31T05:19:45;5.47;;;4.13;;
73557;SDS011;61829;53.286;10.434;2023-07-31T05:22:11;5.30;;;4.05;;
73557;SDS011;61829;53.286;10.434;2023-07-31T05:24:37;5.43;;;4.10;;
73557;SDS011;61829;53.286;10.434;2023-07-31T05:27:03;5.72;;;4.22;;
73557;SDS011;61829;53.286;10.434;2023-07-31T05:29:29;7.25;;;3.92;;
73557;SDS011;61829;53.286;10.434;2023-07-31T05:31:55;5.30;;;3.80;;
73557;SDS011;61829;53.286;10.434;2023-07-31T05:34:22;5.25;;;4.30;;
73557;SDS011;61829;53.286;10.434;2023-07-31T05:36:47;5.68;;;3.92;;
73557;SDS011;61829;53.286;10.434;2023-07-31T05:39:14;7.15;;;3.92;;
73557;SDS011;61829;53.286;10.434;2023-07-31T05:41:39;4.82;;;3.58;;
73557;SDS011;61829;53.286;10.434;2023-07-31T05:44:07;5.43;;;3.35;;
73557;SDS011;61829;53.286;10.434;2023-07-31T05:46:33;5.72;;;3.63;;
73557;SDS011;61829;53.286;10.434;2023-07-31T05:48:59;4.68;;;3.40;;
73557;SDS011;61829;53.286;10.434;2023-07-31T05:51:26;7.32;;;3.88;;
73557;SDS011;61829;53.286;10.434;2023-07-31T05:53:53;4.40;;;3.30;;
73557;SDS011;61829;53.286;10.434;2023-07-31T05:56:19;4.75;;;3.17;;
73557;SDS011;61829;53.286;10.434;2023-07-31T05:58:45;5.35;;;3.45;;
73557;SDS011;61829;53.286;10.434;2023-07-31T06:01:11;4.97;;;3.60;;
73557;SDS011;61829;53.286;10.434;2023-07-31T06:03:37;5.65;;;3.58;;
73557;SDS011;61829;53.286;10.434;2023-07-31T06:06:03;5.60;;;3.20;;
73557;SDS011;61829;53.286;10.434;2023-07-31T06:08:29;5.55;;;3.25;;
73557;SDS011;61829;53.286;10.434;2023-07-31T06:10:55;3.97;;;3.33;;
73557;SDS011;61829;53.286;10.434;2023-07-31T06:13:21;5.03;;;3.47;;
73557;SDS011;61829;53.286;10.434;2023-07-31T06:15:47;3.67;;;3.08;;
73557;SDS011;61829;53.286;10.434;2023-07-31T06:18:13;3.88;;;3.22;;
73557;SDS011;61829;53.286;10.434;2023-07-31T06:20:39;3.78;;;2.65;;
73557;SDS011;61829;53.286;10.434;2023-07-31T06:23:06;4.47;;;3.20;;
73557;SDS011;61829;53.286;10.434;2023-07-31T06:25:33;5.35;;;2.85;;
73557;SDS011;61829;53.286;10.434;2023-07-31T06:27:59;3.63;;;2.70;;
73557;SDS011;61829;53.286;10.434;2023-07-31T06:30:25;4.18;;;2.65;;
73557;SDS011;61829;53.286;10.434;2023-07-31T06:32:51;4.25;;;2.58;;
73557;SDS011;61829;53.286;10.434;2023-07-31T06:35:17;4.75;;;2.40;;
73557;SDS011;61829;53.286;10.434;2023-07-31T06:37:43;3.83;;;2.50;;
73557;SDS011;61829;53.286;10.434;2023-07-31T06:40:10;3.50;;;2.40;;
73557;SDS011;61829;53.286;10.434;2023-07-31T06:42:36;5.22;;;2.30;;
73557;SDS011;61829;53.286;10.434;2023-07-31T06:45:02;4.25;;;1.90;;
73557;SDS011;61829;53.286;10.434;2023-07-31T06:47:28;3.22;;;1.95;;
73557;SDS011;61829;53.286;10.434;2023-07-31T06:49:55;3.22;;;2.00;;
73557;SDS011;61829;53.286;10.434;2023-07-31T06:52:21;3.03;;;1.83;;
73557;SDS011;61829;53.286;10.434;2023-07-31T06:55:00;3.38;;;2.00;;
73557;SDS011;61829;53.286;10.434;2023-07-31T06:57:29;3.42;;;2.00;;
73557;SDS011;61829;53.286;10.434;2023-07-31T06:59:55;3.20;;;1.65;;
73557;SDS011;61829;53.286;10.434;2023-07-31T07:02:21;4.70;;;1.92;;
73557;SDS011;61829;53.286;10.434;2023-07-31T07:04:48;2.35;;;1.35;;
73557;SDS011;61829;53.286;10.434;2023-07-31T07:07:14;2.78;;;1.58;;
73557;SDS011;61829;53.286;10.434;2023-07-31T07:09:41;2.35;;;1.50;;
73557;SDS011;61829;53.286;10.434;2023-07-31T07:12:07;2.13;;;1.20;;
73557;SDS011;61829;53.286;10.434;2023-07-31T07:14:33;3.60;;;1.73;;
73557;SDS011;61829;53.286;10.434;2023-07-31T07:16:59;2.15;;;1.20;;
73557;SDS011;61829;53.286;10.434;2023-07-31T07:19:26;2.45;;;1.10;;
73557;SDS011;61829;53.286;10.434;2023-07-31T07:21:51;2.83;;;1.52;;
73557;SDS011;61829;53.286;10.434;2023-07-31T07:24:19;1.92;;;1.23;;
73557;SDS011;61829;53.286;10.434;2023-07-31T07:29:11;2.03;;;1.30;;
73557;SDS011;61829;53.286;10.434;2023-07-31T07:31:36;3.03;;;1.40;;
73557;SDS011;61829;53.286;10.434;2023-07-31T07:34:03;2.00;;;1.08;;
73557;SDS011;61829;53.286;10.434;2023-07-31T07:36:29;1.75;;;1.20;;
73557;SDS011;61829;53.286;10.434;2023-07-31T07:38:56;2.05;;;1.10;;
73557;SDS011;61829;53.286;10.434;2023-07-31T07:41:23;1.88;;;1.20;;
73557;SDS011;61829;53.286;10.434;2023-07-31T07:43:50;2.47;;;1.10;;
73557;SDS011;61829;53.286;10.434;2023-07-31T07:46:17;1.88;;;1.15;;
73557;SDS011;61829;53.286;10.434;2023-07-31T07:48:43;3.42;;;1.10;;
73557;SDS011;61829;53.286;10.434;2023-07-31T07:51:09;4.03;;;1.23;;
73557;SDS011;61829;53.286;10.434;2023-07-31T07:53:35;2.30;;;1.10;;
73557;SDS011;61829;53.286;10.434;2023-07-31T07:56:01;2.05;;;1.30;;
73557;SDS011;61829;53.286;10.434;2023-07-31T07:58:27;2.25;;;1.30;;
73557;SDS011;61829;53.286;10.434;2023-07-31T08:00:53;2.53;;;1.23;;
73557;SDS011;61829;53.286;10.434;2023-07-31T08:03:19;1.42;;;1.10;;
73557;SDS011;61829;53.286;10.434;2023-07-31T08:05:46;2.08;;;1.10;;
73557;SDS011;61829;53.286;10.434;2023-07-31T08:08:15;1.85;;;1.30;;
73557;SDS011;61829;53.286;10.434;2023-07-31T08:10:45;3.35;;;1.20;;
73557;SDS011;61829;53.286;10.434;2023-07-31T08:13:11;3.13;;;1.20;;
73557;SDS011;61829;53.286;10.434;2023-07-31T08:15:37;1.50;;;1.05;;
73557;SDS011;61829;53.286;10.434;2023-07-31T08:18:04;3.45;;;1.10;;
73557;SDS011;61829;53.286;10.434;2023-07-31T08:20:30;2.38;;;1.13;;
73557;SDS011;61829;53.286;10.434;2023-07-31T08:22:56;1.90;;;1.23;;
73557;SDS011;61829;53.286;10.434;2023-07-31T08:25:23;1.42;;;0.90;;
73557;SDS011;61829;53.286;10.434;2023-07-31T08:27:51;1.73;;;0.90;;
73557;SDS011;61829;53.286;10.434;2023-07-31T08:30:18;3.78;;;1.10;;
73557;SDS011;61829;53.286;10.434;2023-07-31T08:32:45;1.65;;;1.15;;
73557;SDS011;61829;53.286;10.434;2023-07-31T08:35:11;1.88;;;0.98;;
73557;SDS011;61829;53.286;10.434;2023-07-31T08:37:37;2.20;;;1.00;;
73557;SDS011;61829;53.286;10.434;2023-07-31T08:40:05;1.63;;;0.80;;
73557;SDS011;61829;53.286;10.434;2023-07-31T08:42:32;1.58;;;1.00;;
73557;SDS011;61829;53.286;10.434;2023-07-31T08:44:59;2.15;;;1.05;;
73557;SDS011;61829;53.286;10.434;2023-07-31T08:47:25;1.08;;;0.90;;
73557;SDS011;61829;53.286;10.434;2023-07-31T08:49:52;1.58;;;0.90;;
73557;SDS011;61829;53.286;10.434;2023-07-31T08:52:20;0.70;;;0.70;;
73557;SDS011;61829;53.286;10.434;2023-07-31T08:54:46;1.40;;;0.80;;
73557;SDS011;61829;53.286;10.434;2023-07-31T08:57:13;1.48;;;0.90;;
73557;SDS011;61829;53.286;10.434;2023-07-31T08:59:40;1.77;;;0.90;;
73557;SDS011;61829;53.286;10.434;2023-07-31T09:02:08;1.00;;;0.90;;
73557;SDS011;61829;53.286;10.434;2023-07-31T09:04:34;1.30;;;0.80;;
73557;SDS011;61829;53.286;10.434;2023-07-31T09:07:01;0.80;;;0.80;;
73557;SDS011;61829;53.286;10.434;2023-07-31T09:09:32;1.08;;;0.77;;
73557;SDS011;61829;53.286;10.434;2023-07-31T09:11:59;1.08;;;0.80;;
73557;SDS011;61829;53.286;10.434;2023-07-31T09:14:25;1.27;;;0.80;;
73557;SDS011;61829;53.286;10.434;2023-07-31T09:16:53;0.77;;;0.75;;
73557;SDS011;61829;53.286;10.434;2023-07-31T09:19:29;1.77;;;0.60;;
73557;SDS011;61829;53.286;10.434;2023-07-31T09:22:00;1.92;;;0.98;;
73557;SDS011;61829;53.286;10.434;2023-07-31T09:24:30;1.02;;;0.70;;
73557;SDS011;61829;53.286;10.434;2023-07-31T09:26:58;0.80;;;0.80;;
73557;SDS011;61829;53.286;10.434;2023-07-31T09:29:26;1.20;;;0.70;;
73557;SDS011;61829;53.286;10.434;2023-07-31T09:31:53;1.20;;;0.77;;
73557;SDS011;61829;53.286;10.434;2023-07-31T09:34:20;1.23;;;0.90;;
73557;SDS011;61829;53.286;10.434;2023-07-31T09:36:54;1.90;;;1.20;;
73557;SDS011;61829;53.286;10.434;2023-07-31T09:39:20;2.88;;;1.10;;
73557;SDS011;61829;53.286;10.434;2023-07-31T09:41:47;1.55;;;1.08;;
73557;SDS011;61829;53.286;10.434;2023-07-31T09:44:19;2.55;;;1.60;;
73557;SDS011;61829;53.286;10.434;2023-07-31T09:46:45;2.88;;;1.48;;
73557;SDS011;61829;53.286;10.434;2023-07-31T09:49:12;4.55;;;2.15;;
73557;SDS011;61829;53.286;10.434;2023-07-31T09:51:40;4.88;;;2.00;;
73557;SDS011;61829;53.286;10.434;2023-07-31T09:54:11;5.63;;;2.25;;
73557;SDS011;61829;53.286;10.434;2023-07-31T09:56:44;5.38;;;2.80;;
73557;SDS011;61829;53.286;10.434;2023-07-31T09:59:13;5.65;;;2.90;;
73557;SDS011;61829;53.286;10.434;2023-07-31T10:01:41;8.13;;;3.28;;
73557;SDS011;61829;53.286;10.434;2023-07-31T10:04:11;5.80;;;3.28;;
73557;SDS011;61829;53.286;10.434;2023-07-31T10:06:39;10.07;;;4.60;;
73557;SDS011;61829;53.286;10.434;2023-07-31T10:09:07;8.63;;;4.00;;
73557;SDS011;61829;53.286;10.434;2023-07-31T10:11:37;8.52;;;4.05;;
73557;SDS011;61829;53.286;10.434;2023-07-31T10:14:09;7.95;;;3.90;;
73557;SDS011;61829;53.286;10.434;2023-07-31T10:16:37;11.30;;;3.90;;
73557;SDS011;61829;53.286;10.434;2023-07-31T10:19:04;11.40;;;4.40;;
73557;SDS011;61829;53.286;10.434;2023-07-31T10:21:31;10.43;;;4.22;;
73557;SDS011;61829;53.286;10.434;2023-07-31T10:24:01;7.82;;;4.07;;
73557;SDS011;61829;53.286;10.434;2023-07-31T10:26:29;9.00;;;4.35;;
73557;SDS011;61829;53.286;10.434;2023-07-31T10:28:57;9.40;;;4.10;;
73557;SDS011;61829;53.286;10.434;2023-07-31T10:31:24;9.55;;;4.30;;
73557;SDS011;61829;53.286;10.434;2023-07-31T10:33:51;9.68;;;4.40;;
73557;SDS011;61829;53.286;10.434;2023-07-31T10:36:19;9.95;;;4.40;;
73557;SDS011;61829;53.286;10.434;2023-07-31T10:38:46;12.45;;;5.03;;
73557;SDS011;61829;53.286;10.434;2023-07-31T10:41:14;11.52;;;4.68;;
73557;SDS011;61829;53.286;10.434;2023-07-31T10:43:40;8.45;;;4.05;;
73557;SDS011;61829;53.286;10.434;2023-07-31T10:46:07;8.73;;;4.30;;
73557;SDS011;61829;53.286;10.434;2023-07-31T10:48:38;9.30;;;4.45;;
73557;SDS011;61829;53.286;10.434;2023-07-31T10:51:11;10.85;;;4.57;;
73557;SDS011;61829;53.286;10.434;2023-07-31T10:53:38;7.78;;;3.90;;
73557;SDS011;61829;53.286;10.434;2023-07-31T10:56:07;10.93;;;4.03;;
73557;SDS011;61829;53.286;10.434;2023-07-31T10:58:35;9.77;;;4.55;;
73557;SDS011;61829;53.286;10.434;2023-07-31T11:01:03;8.30;;;3.75;;
73557;SDS011;61829;53.286;10.434;2023-07-31T11:06:08;8.27;;;3.75;;
73557;SDS011;61829;53.286;10.434;2023-07-31T11:08:35;11.75;;;3.85;;
73557;SDS011;61829;53.286;10.434;2023-07-31T11:11:11;8.25;;;3.55;;
73557;SDS011;61829;53.286;10.434;2023-07-31T11:13:40;9.30;;;3.60;;
73557;SDS011;61829;53.286;10.434;2023-07-31T11:16:16;6.90;;;3.70;;
73557;SDS011;61829;53.286;10.434;2023-07-31T11:18:43;8.63;;;4.10;;
73557;SDS011;61829;53.286;10.434;2023-07-31T11:21:14;6.75;;;3.90;;
73557;SDS011;61829;53.286;10.434;2023-07-31T11:23:41;9.63;;;3.72;;
73557;SDS011;61829;53.286;10.434;2023-07-31T11:26:08;6.88;;;3.75;;
73557;SDS011;61829;53.286;10.434;2023-07-31T11:28:35;6.65;;;3.95;;
73557;SDS011;61829;53.286;10.434;2023-07-31T11:31:02;8.65;;;3.63;;
73557;SDS011;61829;53.286;10.434;2023-07-31T11:33:28;6.13;;;3.22;;
73557;SDS011;61829;53.286;10.434;2023-07-31T11:35:54;6.45;;;2.78;;
73557;SDS011;61829;53.286;10.434;2023-07-31T11:38:22;5.60;;;3.00;;
73557;SDS011;61829;53.286;10.434;2023-07-31T11:40:56;5.93;;;2.90;;
73557;SDS011;61829;53.286;10.434;2023-07-31T11:43:24;5.68;;;3.00;;
73557;SDS011;61829;53.286;10.434;2023-07-31T11:45:55;6.97;;;2.90;;
73557;SDS011;61829;53.286;10.434;2023-07-31T11:48:26;5.53;;;2.65;;
73557;SDS011;61829;53.286;10.434;2023-07-31T11:50:59;6.45;;;2.90;;
73557;SDS011;61829;53.286;10.434;2023-07-31T11:53:35;5.25;;;2.33;;
73557;SDS011;61829;53.286;10.434;2023-07-31T11:56:02;4.72;;;2.10;;
73557;SDS011;61829;53.286;10.434;2023-07-31T11:58:32;4.43;;;2.35;;
73557;SDS011;61829;53.286;10.434;2023-07-31T12:01:00;4.20;;;1.98;;
73557;SDS011;61829;53.286;10.434;2023-07-31T12:03:27;4.72;;;2.05;;
73557;SDS011;61829;53.286;10.434;2023-07-31T12:05:56;3.10;;;1.50;;
73557;SDS011;61829;53.286;10.434;2023-07-31T12:08:23;3.13;;;1.75;;
73557;SDS011;61829;53.286;10.434;2023-07-31T12:10:50;2.40;;;1.50;;
73557;SDS011;61829;53.286;10.434;2023-07-31T12:13:20;3.25;;;1.70;;
73557;SDS011;61829;53.286;10.434;2023-07-31T12:15:48;3.92;;;1.90;;
73557;SDS011;61829;53.286;10.434;2023-07-31T12:18:19;3.22;;;1.65;;
73557;SDS011;61829;53.286;10.434;2023-07-31T12:23:14;2.90;;;1.60;;
73557;SDS011;61829;53.286;10.434;2023-07-31T12:25:42;4.07;;;1.90;;
73557;SDS011;61829;53.286;10.434;2023-07-31T12:28:08;3.60;;;1.85;;
73557;SDS011;61829;53.286;10.434;2023-07-31T12:30:38;4.55;;;1.92;;
73557;SDS011;61829;53.286;10.434;2023-07-31T12:33:12;2.45;;;1.70;;
73557;SDS011;61829;53.286;10.434;2023-07-31T12:35:44;3.20;;;1.70;;
73557;SDS011;61829;53.286;10.434;2023-07-31T12:38:11;4.13;;;2.03;;
73557;SDS011;61829;53.286;10.434;2023-07-31T12:40:39;2.55;;;1.60;;
73557;SDS011;61829;53.286;10.434;2023-07-31T12:43:07;2.92;;;1.50;;
73557;SDS011;61829;53.286;10.434;2023-07-31T12:45:34;2.90;;;1.52;;
73557;SDS011;61829;53.286;10.434;2023-07-31T12:48:00;6.18;;;1.83;;
73557;SDS011;61829;53.286;10.434;2023-07-31T12:50:27;2.35;;;1.50;;
73557;SDS011;61829;53.286;10.434;2023-07-31T12:52:53;2.30;;;1.60;;
73557;SDS011;61829;53.286;10.434;2023-07-31T12:55:21;2.63;;;1.65;;
73557;SDS011;61829;53.286;10.434;2023-07-31T12:57:48;2.33;;;1.30;;
73557;SDS011;61829;53.286;10.434;2023-07-31T13:00:14;2.72;;;1.60;;
73557;SDS011;61829;53.286;10.434;2023-07-31T13:02:40;3.90;;;1.90;;
73557;SDS011;61829;53.286;10.434;2023-07-31T13:05:07;3.00;;;1.40;;
73557;SDS011;61829;53.286;10.434;2023-07-31T13:07:33;2.95;;;1.40;;
73557;SDS011;61829;53.286;10.434;2023-07-31T13:10:00;2.50;;;1.67;;
73557;SDS011;61829;53.286;10.434;2023-07-31T13:12:26;3.00;;;1.80;;
73557;SDS011;61829;53.286;10.434;2023-07-31T13:14:52;3.58;;;1.60;;
73557;SDS011;61829;53.286;10.434;2023-07-31T13:17:18;3.53;;;1.52;;
73557;SDS011;61829;53.286;10.434;2023-07-31T13:19:45;3.03;;;1.73;;
73557;SDS011;61829;53.286;10.434;2023-07-31T13:22:11;2.17;;;1.50;;
73557;SDS011;61829;53.286;10.434;2023-07-31T13:24:37;3.25;;;1.63;;
73557;SDS011;61829;53.286;10.434;2023-07-31T13:27:03;2.90;;;1.50;;
73557;SDS011;61829;53.286;10.434;2023-07-31T13:29:29;3.15;;;1.70;;
73557;SDS011;61829;53.286;10.434;2023-07-31T13:31:56;2.70;;;1.70;;
73557;SDS011;61829;53.286;10.434;2023-07-31T13:34:22;3.40;;;1.67;;
73557;SDS011;61829;53.286;10.434;2023-07-31T13:36:48;3.65;;;1.80;;
73557;SDS011;61829;53.286;10.434;2023-07-31T13:39:14;2.55;;;1.65;;
73557;SDS011;61829;53.286;10.434;2023-07-31T13:41:40;3.25;;;1.70;;
73557;SDS011;61829;53.286;10.434;2023-07-31T13:44:06;2.50;;;1.45;;
73557;SDS011;61829;53.286;10.434;2023-07-31T13:46:32;3.67;;;1.30;;
73557;SDS011;61829;53.286;10.434;2023-07-31T13:48:59;2.78;;;1.42;;
73557;SDS011;61829;53.286;10.434;2023-07-31T13:51:26;3.60;;;1.40;;
73557;SDS011;61829;53.286;10.434;2023-07-31T13:53:53;1.73;;;1.27;;
73557;SDS011;61829;53.286;10.434;2023-07-31T13:56:19;1.80;;;1.30;;
73557;SDS011;61829;53.286;10.434;2023-07-31T13:58:47;2.17;;;1.30;;
73557;SDS011;61829;53.286;10.434;2023-07-31T14:01:12;4.30;;;1.33;;
73557;SDS011;61829;53.286;10.434;2023-07-31T14:03:39;3.20;;;1.63;;
73557;SDS011;61829;53.286;10.434;2023-07-31T14:06:05;1.70;;;1.20;;
73557;SDS011;61829;53.286;10.434;2023-07-31T14:08:31;1.73;;;1.20;;
73557;SDS011;61829;53.286;10.434;2023-07-31T14:10:57;2.08;;;1.10;;
73557;SDS011;61829;53.286;10.434;2023-07-31T14:13:23;1.88;;;1.27;;
73557;SDS011;61829;53.286;10.434;2023-07-31T14:15:49;2.13;;;1.35;;
73557;SDS011;61829;53.286;10.434;2023-07-31T14:18:15;2.20;;;1.40;;
73557;SDS011;61829;53.286;10.434;2023-07-31T14:20:41;1.75;;;1.30;;
73557;SDS011;61829;53.286;10.434;2023-07-31T14:23:07;1.73;;;1.30;;
73557;SDS011;61829;53.286;10.434;2023-07-31T14:25:33;2.15;;;1.40;;
73557;SDS011;61829;53.286;10.434;2023-07-31T14:27:59;2.25;;;1.20;;
73557;SDS011;61829;53.286;10.434;2023-07-31T14:30:25;1.95;;;1.38;;
73557;SDS011;61829;53.286;10.434;2023-07-31T14:32:51;1.65;;;1.17;;
73557;SDS011;61829;53.286;10.434;2023-07-31T14:35:17;1.92;;;1.33;;
73557;SDS011;61829;53.286;10.434;2023-07-31T14:37:44;5.22;;;1.73;;
73557;SDS011;61829;53.286;10.434;2023-07-31T14:40:11;2.20;;;1.52;;
73557;SDS011;61829;53.286;10.434;2023-07-31T14:42:38;4.22;;;1.73;;
73557;SDS011;61829;53.286;10.434;2023-07-31T14:45:05;2.30;;;1.60;;
73557;SDS011;61829;53.286;10.434;2023-07-31T14:47:32;2.47;;;1.80;;
73557;SDS011;61829;53.286;10.434;2023-07-31T14:49:59;2.88;;;1.90;;
73557;SDS011;61829;53.286;10.434;2023-07-31T14:52:26;3.60;;;2.00;;
73557;SDS011;61829;53.286;10.434;2023-07-31T14:54:52;2.60;;;1.98;;